sensor_id;sensor_type;location;lat;lon;timestamp;pressure;altitude;pressure_sealevel;temperature;humidity
26657;BME280;14279;50.010;8.260;2023-02-16T00:00:22;101622.00;;;2.67;88.48
26657;BME280;14279;50.010;8.260;2023-02-16T00:02:50;101626.22;;;2.55;88.58
26657;BME280;14279;50.010;8.260;2023-02-16T00:07:51;101631.31;;;2.49;88.61
26657;BME280;14279;50.010;8.260;2023-02-16T00:10:17;101641.53;;;2.42;88.79
26657;BME280;14279;50.010;8.260;2023-02-16T00:12:42;101633.13;;;2.60;89.26
26657;BME280;14279;50.010;8.260;2023-02-16T00:15:26;101632.91;;;2.35;89.96
26657;BME280;14279;50.010;8.260;2023-02-16T00:17:53;101625.34;;;2.52;88.66
26657;BME280;14279;50.010;8.260;2023-02-16T00:20:18;101631.31;;;2.49;89.32
26657;BME280;14279;50.010;8.260;2023-02-16T00:22:43;101631.34;;;2.54;89.36
26657;BME280;14279;50.010;8.260;2023-02-16T00:25:09;101622.78;;;2.52;88.89
26657;BME280;14279;50.010;8.260;2023-02-16T00:27:34;101620.41;;;2.81;87.83
26657;BME280;14279;50.010;8.260;2023-02-16T00:30:00;101621.22;;;2.73;88.05
26657;BME280;14279;50.010;8.260;2023-02-16T00:32:26;101627.06;;;2.56;87.15
26657;BME280;14279;50.010;8.260;2023-02-16T00:34:51;101615.22;;;2.74;87.56
26657;BME280;14279;50.010;8.260;2023-02-16T00:37:17;101609.19;;;2.73;87.12
26657;BME280;14279;50.010;8.260;2023-02-16T00:39:43;101612.66;;;2.80;86.80
26657;BME280;14279;50.010;8.260;2023-02-16T00:42:16;101621.25;;;2.80;86.95
26657;BME280;14279;50.010;8.260;2023-02-16T00:44:45;101604.88;;;2.67;86.83
26657;BME280;14279;50.010;8.260;2023-02-16T00:47:22;101616.88;;;2.64;87.01
26657;BME280;14279;50.010;8.260;2023-02-16T00:49:52;101616.75;;;2.50;87.53
26657;BME280;14279;50.010;8.260;2023-02-16T00:52:35;101615.00;;;2.43;87.99
26657;BME280;14279;50.010;8.260;2023-02-16T00:55:05;101620.84;;;2.23;89.13
26657;BME280;14279;50.010;8.260;2023-02-16T00:57:34;101620.72;;;2.14;89.99
26657;BME280;14279;50.010;8.260;2023-02-16T01:00:10;101615.78;;;2.34;88.61
26657;BME280;14279;50.010;8.260;2023-02-16T01:02:36;101621.75;;;2.33;89.17
26657;BME280;14279;50.010;8.260;2023-02-16T01:05:02;101630.28;;;2.29;88.29
26657;BME280;14279;50.010;8.260;2023-02-16T01:07:27;101618.47;;;2.48;88.24
26657;BME280;14279;50.010;8.260;2023-02-16T01:10:11;101618.47;;;2.49;88.29
26657;BME280;14279;50.010;8.260;2023-02-16T01:12:55;101628.56;;;2.26;87.82
26657;BME280;14279;50.010;8.260;2023-02-16T01:15:23;101621.00;;;2.45;88.19
26657;BME280;14279;50.010;8.260;2023-02-16T01:17:48;101619.16;;;2.28;88.00
26657;BME280;14279;50.010;8.260;2023-02-16T01:20:20;101610.63;;;2.35;87.59
26657;BME280;14279;50.010;8.260;2023-02-16T01:22:46;101614.94;;;2.35;88.14
26657;BME280;14279;50.010;8.260;2023-02-16T01:25:12;101616.00;;;2.63;87.38
26657;BME280;14279;50.010;8.260;2023-02-16T01:27:38;101620.19;;;2.50;87.42
26657;BME280;14279;50.010;8.260;2023-02-16T01:30:05;101609.06;;;2.54;87.17
26657;BME280;14279;50.010;8.260;2023-02-16T01:32:31;101609.06;;;2.50;86.93
26657;BME280;14279;50.010;8.260;2023-02-16T01:34:57;101607.38;;;2.58;86.85
26657;BME280;14279;50.010;8.260;2023-02-16T01:37:22;101592.84;;;2.59;86.18
26657;BME280;14279;50.010;8.260;2023-02-16T01:39:48;101599.63;;;2.50;86.17
26657;BME280;14279;50.010;8.260;2023-02-16T01:44:57;101606.19;;;2.17;86.60
26657;BME280;14279;50.010;8.260;2023-02-16T01:47:46;101606.97;;;2.08;87.02
26657;BME280;14279;50.010;8.260;2023-02-16T01:50:19;101602.69;;;2.06;86.72
26657;BME280;14279;50.010;8.260;2023-02-16T01:53:14;101602.75;;;2.14;87.17
26657;BME280;14279;50.010;8.260;2023-02-16T01:55:45;101607.25;;;2.41;86.10
26657;BME280;14279;50.010;8.260;2023-02-16T01:58:57;101591.09;;;2.54;85.48
26657;BME280;14279;50.010;8.260;2023-02-16T02:03:32;101596.13;;;2.39;85.41
26657;BME280;14279;50.010;8.260;2023-02-16T02:06:20;101601.28;;;2.45;86.27
26657;BME280;14279;50.010;8.260;2023-02-16T02:12:30;101585.91;;;2.51;85.79
26657;BME280;14279;50.010;8.260;2023-02-16T02:14:36;101579.97;;;2.60;85.44
26657;BME280;14279;50.010;8.260;2023-02-16T02:17:07;101579.81;;;2.38;86.39
26657;BME280;14279;50.010;8.260;2023-02-16T02:19:46;101581.56;;;2.43;86.62
26657;BME280;14279;50.010;8.260;2023-02-16T02:28:30;101562.72;;;2.40;86.99
26657;BME280;14279;50.010;8.260;2023-02-16T02:44:00;101566.06;;;2.30;87.12
26657;BME280;14279;50.010;8.260;2023-02-16T02:46:13;101561.84;;;2.38;87.44
26657;BME280;14279;50.010;8.260;2023-02-16T02:48:41;101555.13;;;2.59;86.61
26657;BME280;14279;50.010;8.260;2023-02-16T02:54:19;101560.38;;;2.75;86.13
26657;BME280;14279;50.010;8.260;2023-02-16T02:57:23;101560.97;;;2.35;87.40
26657;BME280;14279;50.010;8.260;2023-02-16T03:00:18;101565.28;;;2.39;86.96
26657;BME280;14279;50.010;8.260;2023-02-16T03:03:27;101564.44;;;2.46;86.59
26657;BME280;14279;50.010;8.260;2023-02-16T03:06:01;101556.84;;;2.60;85.32
26657;BME280;14279;50.010;8.260;2023-02-16T03:08:31;101555.16;;;2.67;86.03
26657;BME280;14279;50.010;8.260;2023-02-16T03:11:09;101556.97;;;2.83;85.34
26657;BME280;14279;50.010;8.260;2023-02-16T03:13:58;101562.75;;;2.44;85.35
26657;BME280;14279;50.010;8.260;2023-02-16T03:16:30;101564.50;;;2.52;86.14
26657;BME280;14279;50.010;8.260;2023-02-16T03:18:58;101566.34;;;2.75;85.05
26657;BME280;14279;50.010;8.260;2023-02-16T03:21:43;101567.94;;;2.56;84.74
26657;BME280;14279;50.010;8.260;2023-02-16T03:24:30;101567.91;;;2.47;85.33
26657;BME280;14279;50.010;8.260;2023-02-16T03:27:23;101567.63;;;2.13;85.40
26657;BME280;14279;50.010;8.260;2023-02-16T03:30:09;101568.69;;;2.38;85.76
26657;BME280;14279;50.010;8.260;2023-02-16T03:32:35;101567.91;;;2.47;85.30
26657;BME280;14279;50.010;8.260;2023-02-16T03:35:01;101568.66;;;2.32;85.61
26657;BME280;14279;50.010;8.260;2023-02-16T03:37:26;101574.59;;;2.23;86.04
26657;BME280;14279;50.010;8.260;2023-02-16T03:39:51;101567.66;;;2.17;85.85
26657;BME280;14279;50.010;8.260;2023-02-16T03:42:36;101569.28;;;2.01;86.78
26657;BME280;14279;50.010;8.260;2023-02-16T03:45:01;101567.47;;;1.95;87.54
26657;BME280;14279;50.010;8.260;2023-02-16T03:47:26;101569.53;;;2.35;87.33
26657;BME280;14279;50.010;8.260;2023-02-16T03:49:51;101556.59;;;2.23;85.88
26657;BME280;14279;50.010;8.260;2023-02-16T03:52:17;101562.44;;;2.06;86.74
26657;BME280;14279;50.010;8.260;2023-02-16T03:54:42;101570.06;;;1.92;87.07
26657;BME280;14279;50.010;8.260;2023-02-16T03:57:07;101567.94;;;1.54;88.56
26657;BME280;14279;50.010;8.260;2023-02-16T03:59:32;101576.59;;;1.62;88.90
26657;BME280;14279;50.010;8.260;2023-02-16T04:01:58;101571.81;;;1.98;87.68
26657;BME280;14279;50.010;8.260;2023-02-16T04:04:23;101578.59;;;1.94;87.20
26657;BME280;14279;50.010;8.260;2023-02-16T04:06:49;101566.38;;;1.67;88.43
26657;BME280;14279;50.010;8.260;2023-02-16T04:09:14;101571.72;;;1.87;89.09
26657;BME280;14279;50.010;8.260;2023-02-16T04:11:39;101564.13;;;2.01;87.57
26657;BME280;14279;50.010;8.260;2023-02-16T04:14:23;101557.28;;;2.06;87.79
26657;BME280;14279;50.010;8.260;2023-02-16T04:16:48;101567.38;;;1.83;87.96
26657;BME280;14279;50.010;8.260;2023-02-16T04:19:13;101560.53;;;1.80;88.48
26657;BME280;14279;50.010;8.260;2023-02-16T04:21:39;101564.00;;;1.89;88.41
26657;BME280;14279;50.010;8.260;2023-02-16T04:24:04;101574.09;;;1.70;88.87
26657;BME280;14279;50.010;8.260;2023-02-16T04:26:31;101562.16;;;1.74;88.55
26657;BME280;14279;50.010;8.260;2023-02-16T04:28:57;101563.03;;;1.76;88.90
26657;BME280;14279;50.010;8.260;2023-02-16T04:31:22;101559.56;;;1.72;88.32
26657;BME280;14279;50.010;8.260;2023-02-16T04:33:47;101565.59;;;1.74;88.86
26657;BME280;14279;50.010;8.260;2023-02-16T04:36:12;101566.44;;;1.73;88.67
26657;BME280;14279;50.010;8.260;2023-02-16T04:38:38;101566.56;;;1.87;88.76
26657;BME280;14279;50.010;8.260;2023-02-16T04:41:03;101573.38;;;1.84;87.89
26657;BME280;14279;50.010;8.260;2023-02-16T04:43:28;101573.44;;;1.90;88.00
26657;BME280;14279;50.010;8.260;2023-02-16T04:45:54;101568.47;;;2.12;86.60
26657;BME280;14279;50.010;8.260;2023-02-16T04:48:19;101563.25;;;2.01;86.39
26657;BME280;14279;50.010;8.260;2023-02-16T04:50:44;101564.84;;;1.86;87.22
26657;BME280;14279;50.010;8.260;2023-02-16T04:53:09;101557.22;;;1.95;87.11
26657;BME280;14279;50.010;8.260;2023-02-16T04:55:35;101562.25;;;1.83;86.97
26657;BME280;14279;50.010;8.260;2023-02-16T04:58:00;101551.06;;;1.76;87.19
26657;BME280;14279;50.010;8.260;2023-02-16T05:00:25;101559.53;;;1.69;88.41
26657;BME280;14279;50.010;8.260;2023-02-16T05:02:51;101567.34;;;1.80;87.59
26657;BME280;14279;50.010;8.260;2023-02-16T05:05:16;101568.25;;;1.87;87.72
26657;BME280;14279;50.010;8.260;2023-02-16T05:07:41;101563.28;;;2.02;85.85
26657;BME280;14279;50.010;8.260;2023-02-16T05:10:07;101566.59;;;1.92;86.12
26657;BME280;14279;50.010;8.260;2023-02-16T05:12:32;101564.00;;;1.87;87.25
26657;BME280;14279;50.010;8.260;2023-02-16T05:15:16;101563.47;;;2.24;86.22
26657;BME280;14279;50.010;8.260;2023-02-16T05:17:42;101563.34;;;2.12;85.77
26657;BME280;14279;50.010;8.260;2023-02-16T05:20:07;101571.84;;;2.01;85.99
26657;BME280;14279;50.010;8.260;2023-02-16T05:22:32;101579.38;;;1.86;86.13
26657;BME280;14279;50.010;8.260;2023-02-16T05:24:59;101571.59;;;1.78;87.26
26657;BME280;14279;50.010;8.260;2023-02-16T05:27:28;101573.13;;;1.59;87.90
26657;BME280;14279;50.010;8.260;2023-02-16T05:29:54;101568.94;;;1.65;87.98
26657;BME280;14279;50.010;8.260;2023-02-16T05:32:20;101573.97;;;1.56;87.79
26657;BME280;14279;50.010;8.260;2023-02-16T05:34:46;101572.22;;;1.57;87.66
26657;BME280;14279;50.010;8.260;2023-02-16T05:37:12;101568.19;;;1.79;87.48
26657;BME280;14279;50.010;8.260;2023-02-16T05:39:39;101570.59;;;1.62;87.77
26657;BME280;14279;50.010;8.260;2023-02-16T05:42:06;101562.91;;;1.65;87.18
26657;BME280;14279;50.010;8.260;2023-02-16T05:44:32;101565.56;;;1.71;87.76
26657;BME280;14279;50.010;8.260;2023-02-16T05:46:57;101573.28;;;1.76;86.95
26657;BME280;14279;50.010;8.260;2023-02-16T05:49:22;101567.19;;;1.63;87.90
26657;BME280;14279;50.010;8.260;2023-02-16T05:51:48;101580.84;;;1.60;87.56
26657;BME280;14279;50.010;8.260;2023-02-16T05:54:13;101580.84;;;1.62;87.82
26657;BME280;14279;50.010;8.260;2023-02-16T05:56:45;101581.97;;;1.89;86.50
26657;BME280;14279;50.010;8.260;2023-02-16T05:59:11;101572.38;;;1.69;87.12
26657;BME280;14279;50.010;8.260;2023-02-16T06:01:37;101587.63;;;1.57;88.27
26657;BME280;14279;50.010;8.260;2023-02-16T06:04:08;101592.69;;;1.49;88.37
26657;BME280;14279;50.010;8.260;2023-02-16T06:06:35;101600.47;;;1.55;88.28
26657;BME280;14279;50.010;8.260;2023-02-16T06:09:02;101609.69;;;1.39;88.97
26657;BME280;14279;50.010;8.260;2023-02-16T06:11:28;101609.00;;;1.54;88.44
26657;BME280;14279;50.010;8.260;2023-02-16T06:14:07;101605.47;;;1.44;88.49
26657;BME280;14279;50.010;8.260;2023-02-16T06:16:33;101603.91;;;1.56;88.87
26657;BME280;14279;50.010;8.260;2023-02-16T06:18:59;101611.69;;;1.63;88.79
26657;BME280;14279;50.010;8.260;2023-02-16T06:21:25;101613.38;;;1.61;87.94
26657;BME280;14279;50.010;8.260;2023-02-16T06:23:51;101615.88;;;1.54;88.08
26657;BME280;14279;50.010;8.260;2023-02-16T06:26:16;101609.09;;;1.60;87.69
26657;BME280;14279;50.010;8.260;2023-02-16T06:28:42;101603.28;;;1.82;86.84
26657;BME280;14279;50.010;8.260;2023-02-16T06:31:07;101615.25;;;1.78;87.45
26657;BME280;14279;50.010;8.260;2023-02-16T06:33:32;101613.38;;;1.61;88.11
26657;BME280;14279;50.010;8.260;2023-02-16T06:35:58;101616.13;;;1.80;88.23
26657;BME280;14279;50.010;8.260;2023-02-16T06:38:23;101616.31;;;1.99;87.80
26657;BME280;14279;50.010;8.260;2023-02-16T06:40:52;101625.47;;;1.73;87.70
26657;BME280;14279;50.010;8.260;2023-02-16T06:43:17;101620.56;;;1.95;87.04
26657;BME280;14279;50.010;8.260;2023-02-16T06:45:43;101623.28;;;2.09;86.72
26657;BME280;14279;50.010;8.260;2023-02-16T06:48:08;101620.84;;;2.29;84.48
26657;BME280;14279;50.010;8.260;2023-02-16T06:50:34;101612.75;;;1.86;86.17
26657;BME280;14279;50.010;8.260;2023-02-16T06:52:59;101616.16;;;1.83;87.13
26657;BME280;14279;50.010;8.260;2023-02-16T06:55:24;101616.25;;;1.89;87.19
26657;BME280;14279;50.010;8.260;2023-02-16T06:57:50;101606.84;;;1.91;86.74
26657;BME280;14279;50.010;8.260;2023-02-16T07:00:15;101614.81;;;2.22;86.53
26657;BME280;14279;50.010;8.260;2023-02-16T07:02:41;101608.91;;;2.33;84.38
26657;BME280;14279;50.010;8.260;2023-02-16T07:05:08;101612.56;;;1.65;85.72
26657;BME280;14279;50.010;8.260;2023-02-16T07:07:34;101610.34;;;2.01;86.40
26657;BME280;14279;50.010;8.260;2023-02-16T07:10:00;101619.84;;;2.10;85.19
26657;BME280;14279;50.010;8.260;2023-02-16T07:12:27;101614.41;;;1.79;85.69
26657;BME280;14279;50.010;8.260;2023-02-16T07:14:52;101623.84;;;1.82;85.43
26657;BME280;14279;50.010;8.260;2023-02-16T07:17:18;101613.75;;;1.97;85.53
26657;BME280;14279;50.010;8.260;2023-02-16T07:19:43;101619.00;;;2.13;85.11
26657;BME280;14279;50.010;8.260;2023-02-16T07:22:08;101624.31;;;2.28;84.16
26657;BME280;14279;50.010;8.260;2023-02-16T07:24:35;101626.66;;;2.06;84.42
26657;BME280;14279;50.010;8.260;2023-02-16T07:27:00;101636.84;;;1.97;85.10
26657;BME280;14279;50.010;8.260;2023-02-16T07:29:26;101634.88;;;1.71;86.08
26657;BME280;14279;50.010;8.260;2023-02-16T07:31:51;101629.88;;;1.85;85.66
26657;BME280;14279;50.010;8.260;2023-02-16T07:34:17;101633.41;;;1.97;84.75
26657;BME280;14279;50.010;8.260;2023-02-16T07:36:43;101633.34;;;1.89;85.19
26657;BME280;14279;50.010;8.260;2023-02-16T07:39:09;101639.97;;;1.70;85.30
26657;BME280;14279;50.010;8.260;2023-02-16T07:41:35;101633.03;;;1.61;86.12
26657;BME280;14279;50.010;8.260;2023-02-16T07:44:00;101635.59;;;1.59;86.40
26657;BME280;14279;50.010;8.260;2023-02-16T07:46:25;101634.97;;;1.80;86.00
26657;BME280;14279;50.010;8.260;2023-02-16T07:48:50;101637.75;;;2.01;84.43
26657;BME280;14279;50.010;8.260;2023-02-16T07:51:27;101633.31;;;1.84;84.04
26657;BME280;14279;50.010;8.260;2023-02-16T07:53:53;101642.72;;;1.87;84.30
26657;BME280;14279;50.010;8.260;2023-02-16T07:56:30;101637.56;;;1.80;85.25
26657;BME280;14279;50.010;8.260;2023-02-16T07:58:57;101640.72;;;1.61;85.70
26657;BME280;14279;50.010;8.260;2023-02-16T08:01:23;101652.88;;;1.76;84.52
26657;BME280;14279;50.010;8.260;2023-02-16T08:03:49;101659.28;;;1.38;85.09
26657;BME280;14279;50.010;8.260;2023-02-16T08:06:14;101659.94;;;1.22;86.56
26657;BME280;14279;50.010;8.260;2023-02-16T08:08:40;101647.28;;;1.37;86.43
26657;BME280;14279;50.010;8.260;2023-02-16T08:11:15;101646.75;;;1.63;85.91
26657;BME280;14279;50.010;8.260;2023-02-16T08:13:41;101645.09;;;1.68;85.29
26657;BME280;14279;50.010;8.260;2023-02-16T08:16:12;101649.84;;;2.13;84.13
26657;BME280;14279;50.010;8.260;2023-02-16T08:18:38;101642.81;;;1.93;84.36
26657;BME280;14279;50.010;8.260;2023-02-16T08:21:16;101652.22;;;1.92;83.92
26657;BME280;14279;50.010;8.260;2023-02-16T08:23:44;101652.09;;;1.80;85.41
26657;BME280;14279;50.010;8.260;2023-02-16T08:26:16;101655.81;;;2.10;83.81
26657;BME280;14279;50.010;8.260;2023-02-16T08:28:43;101643.78;;;2.07;83.15
26657;BME280;14279;50.010;8.260;2023-02-16T08:31:13;101653.78;;;1.78;84.06
26657;BME280;14279;50.010;8.260;2023-02-16T08:33:39;101646.81;;;1.68;84.84
26657;BME280;14279;50.010;8.260;2023-02-16T08:36:04;101651.00;;;1.61;84.81
26657;BME280;14279;50.010;8.260;2023-02-16T08:38:36;101660.56;;;1.73;84.27
26657;BME280;14279;50.010;8.260;2023-02-16T08:41:01;101650.34;;;1.79;84.30
26657;BME280;14279;50.010;8.260;2023-02-16T08:43:27;101646.22;;;1.90;83.85
26657;BME280;14279;50.010;8.260;2023-02-16T08:45:52;101648.66;;;1.81;84.23
26657;BME280;14279;50.010;8.260;2023-02-16T08:48:19;101645.47;;;2.02;84.64
26657;BME280;14279;50.010;8.260;2023-02-16T08:50:46;101646.47;;;2.15;83.21
26657;BME280;14279;50.010;8.260;2023-02-16T08:53:17;101654.88;;;2.02;83.63
26657;BME280;14279;50.010;8.260;2023-02-16T08:55:50;101651.94;;;2.57;81.66
26657;BME280;14279;50.010;8.260;2023-02-16T08:58:15;101656.22;;;2.57;81.75
26657;BME280;14279;50.010;8.260;2023-02-16T09:00:41;101656.91;;;2.34;81.50
26657;BME280;14279;50.010;8.260;2023-02-16T09:03:07;101661.03;;;2.19;82.83
26657;BME280;14279;50.010;8.260;2023-02-16T09:05:32;101662.69;;;2.11;82.40
26657;BME280;14279;50.010;8.260;2023-02-16T09:07:58;101669.41;;;1.98;83.54
26657;BME280;14279;50.010;8.260;2023-02-16T09:10:23;101668.69;;;2.15;83.19
26657;BME280;14279;50.010;8.260;2023-02-16T09:12:49;101660.88;;;2.02;84.03
26657;BME280;14279;50.010;8.260;2023-02-16T09:15:15;101654.13;;;2.14;83.14
26657;BME280;14279;50.010;8.260;2023-02-16T09:17:41;101650.00;;;2.31;83.48
26657;BME280;14279;50.010;8.260;2023-02-16T09:20:07;101658.56;;;2.29;82.51
26657;BME280;14279;50.010;8.260;2023-02-16T09:22:32;101660.03;;;2.03;83.19
26657;BME280;14279;50.010;8.260;2023-02-16T09:24:58;101654.28;;;2.31;83.07
26657;BME280;14279;50.010;8.260;2023-02-16T09:27:23;101656.69;;;2.14;83.52
26657;BME280;14279;50.010;8.260;2023-02-16T09:29:49;101656.00;;;2.29;83.21
26657;BME280;14279;50.010;8.260;2023-02-16T09:32:15;101650.28;;;2.67;82.08
26657;BME280;14279;50.010;8.260;2023-02-16T09:34:41;101652.88;;;2.64;81.54
26657;BME280;14279;50.010;8.260;2023-02-16T09:37:08;101649.13;;;2.29;82.82
26657;BME280;14279;50.010;8.260;2023-02-16T09:39:34;101645.97;;;2.60;82.10
26657;BME280;14279;50.010;8.260;2023-02-16T09:42:21;101654.44;;;2.49;82.36
26657;BME280;14279;50.010;8.260;2023-02-16T09:45:12;101654.38;;;2.42;82.43
26657;BME280;14279;50.010;8.260;2023-02-16T09:47:45;101641.00;;;2.86;80.49
26657;BME280;14279;50.010;8.260;2023-02-16T09:50:21;101645.41;;;3.09;78.83
26657;BME280;14279;50.010;8.260;2023-02-16T09:53:07;101652.13;;;2.83;80.36
26657;BME280;14279;50.010;8.260;2023-02-16T09:55:41;101658.97;;;2.81;79.72
26657;BME280;14279;50.010;8.260;2023-02-16T09:58:15;101651.31;;;2.89;80.02
26657;BME280;14279;50.010;8.260;2023-02-16T10:00:58;101648.00;;;3.12;79.80
26657;BME280;14279;50.010;8.260;2023-02-16T10:03:53;101658.19;;;2.92;78.66
26657;BME280;14279;50.010;8.260;2023-02-16T10:06:55;101656.56;;;3.08;79.43
26657;BME280;14279;50.010;8.260;2023-02-16T10:09:26;101658.31;;;3.13;77.77
26657;BME280;14279;50.010;8.260;2023-02-16T10:14:34;101637.88;;;3.46;77.82
26657;BME280;14279;50.010;8.260;2023-02-16T10:20:02;101647.94;;;2.96;79.52
26657;BME280;14279;50.010;8.260;2023-02-16T10:22:33;101650.69;;;3.34;79.16
26657;BME280;14279;50.010;8.260;2023-02-16T10:25:20;101644.66;;;3.27;77.87
26657;BME280;14279;50.010;8.260;2023-02-16T10:27:55;101652.19;;;2.96;79.83
26657;BME280;14279;50.010;8.260;2023-02-16T10:30:22;101642.78;;;2.93;80.59
26657;BME280;14279;50.010;8.260;2023-02-16T10:32:54;101653.94;;;2.95;80.34
26657;BME280;14279;50.010;8.260;2023-02-16T10:35:48;101655.66;;;2.96;79.67
26657;BME280;14279;50.010;8.260;2023-02-16T10:38:21;101651.50;;;3.25;78.82
26657;BME280;14279;50.010;8.260;2023-02-16T10:40:54;101639.56;;;3.39;79.29
26657;BME280;14279;50.010;8.260;2023-02-16T10:43:48;101625.06;;;3.66;77.98
26657;BME280;14279;50.010;8.260;2023-02-16T10:46:29;101618.28;;;3.95;76.82
26657;BME280;14279;50.010;8.260;2023-02-16T10:48:58;101618.13;;;3.46;77.47
26657;BME280;14279;50.010;8.260;2023-02-16T10:51:25;101626.84;;;3.80;76.60
26657;BME280;14279;50.010;8.260;2023-02-16T10:54:02;101619.09;;;3.89;76.23
26657;BME280;14279;50.010;8.260;2023-02-16T10:56:40;101619.13;;;3.94;76.29
26657;BME280;14279;50.010;8.260;2023-02-16T10:59:15;101617.44;;;4.27;74.74
26657;BME280;14279;50.010;8.260;2023-02-16T11:01:44;101611.41;;;4.28;73.90
26657;BME280;14279;50.010;8.260;2023-02-16T11:07:14;101614.84;;;4.30;73.79
26657;BME280;14279;50.010;8.260;2023-02-16T11:09:41;101615.72;;;4.52;73.07
26657;BME280;14279;50.010;8.260;2023-02-16T11:12:23;101598.53;;;4.28;73.88
26657;BME280;14279;50.010;8.260;2023-02-16T11:14:53;101601.13;;;4.34;74.60
26657;BME280;14279;50.010;8.260;2023-02-16T11:17:19;101606.28;;;4.40;74.21
26657;BME280;14279;50.010;8.260;2023-02-16T11:19:51;101595.94;;;4.39;74.20
26657;BME280;14279;50.010;8.260;2023-02-16T11:22:38;101586.50;;;4.36;74.45
26657;BME280;14279;50.010;8.260;2023-02-16T11:27:59;101588.22;;;4.48;73.73
26657;BME280;14279;50.010;8.260;2023-02-16T11:30:33;101585.63;;;4.28;74.48
26657;BME280;14279;50.010;8.260;2023-02-16T11:33:00;101586.50;;;4.41;74.35
26657;BME280;14279;50.010;8.260;2023-02-16T11:35:29;101588.22;;;4.34;74.21
26657;BME280;14279;50.010;8.260;2023-02-16T11:37:56;101583.94;;;4.36;74.35
26657;BME280;14279;50.010;8.260;2023-02-16T11:40:24;101588.22;;;4.43;74.81
26657;BME280;14279;50.010;8.260;2023-02-16T11:42:52;101588.22;;;4.42;74.85
26657;BME280;14279;50.010;8.260;2023-02-16T11:45:33;101578.75;;;4.50;74.31
26657;BME280;14279;50.010;8.260;2023-02-16T11:48:11;101583.06;;;4.45;74.18
26657;BME280;14279;50.010;8.260;2023-02-16T11:51:06;101578.75;;;4.67;73.78
26657;BME280;14279;50.010;8.260;2023-02-16T11:53:43;101573.53;;;4.82;73.19
26657;BME280;14279;50.010;8.260;2023-02-16T11:59:14;101562.41;;;4.49;74.20
26657;BME280;14279;50.010;8.260;2023-02-16T12:01:52;101564.13;;;4.69;74.12
26657;BME280;14279;50.010;8.260;2023-02-16T12:07:33;101552.78;;;5.10;73.13
26657;BME280;14279;50.010;8.260;2023-02-16T12:10:17;101553.63;;;5.16;72.38
26657;BME280;14279;50.010;8.260;2023-02-16T12:13:49;101550.97;;;5.28;71.80
26657;BME280;14279;50.010;8.260;2023-02-16T12:19:00;101545.69;;;5.50;70.93
26657;BME280;14279;50.010;8.260;2023-02-16T12:21:53;101553.53;;;5.36;70.98
26657;BME280;14279;50.010;8.260;2023-02-16T12:24:52;101554.41;;;5.32;71.24
26657;BME280;14279;50.010;8.260;2023-02-16T12:27:38;101548.41;;;5.31;71.58
26657;BME280;14279;50.010;8.260;2023-02-16T12:35:32;101547.44;;;5.48;71.01
26657;BME280;14279;50.010;8.260;2023-02-16T12:38:16;101539.91;;;5.07;71.79
26657;BME280;14279;50.010;8.260;2023-02-16T12:40:59;101546.66;;;5.36;71.51
26657;BME280;14279;50.010;8.260;2023-02-16T12:43:35;101537.84;;;5.67;71.00
26657;BME280;14279;50.010;8.260;2023-02-16T12:46:25;101533.50;;;5.75;70.51
26657;BME280;14279;50.010;8.260;2023-02-16T12:48:57;101533.28;;;6.03;69.77
26657;BME280;14279;50.010;8.260;2023-02-16T12:51:30;101517.28;;;5.50;71.18
26657;BME280;14279;50.010;8.260;2023-02-16T12:54:26;101521.75;;;5.28;71.86
26657;BME280;14279;50.010;8.260;2023-02-16T12:56:59;101517.38;;;5.40;71.68
26657;BME280;14279;50.010;8.260;2023-02-16T12:59:47;101509.53;;;5.50;71.87
26657;BME280;14279;50.010;8.260;2023-02-16T13:02:21;101510.22;;;5.77;70.71
26657;BME280;14279;50.010;8.260;2023-02-16T13:05:05;101493.78;;;5.85;70.92
26657;BME280;14279;50.010;8.260;2023-02-16T13:07:41;101491.19;;;5.85;70.42
26657;BME280;14279;50.010;8.260;2023-02-16T13:12:42;101484.16;;;6.03;70.09
26657;BME280;14279;50.010;8.260;2023-02-16T13:15:20;101478.19;;;5.95;70.37
26657;BME280;14279;50.010;8.260;2023-02-16T13:18:00;101477.34;;;5.93;70.19
26657;BME280;14279;50.010;8.260;2023-02-16T13:20:27;101467.75;;;6.10;69.62
26657;BME280;14279;50.010;8.260;2023-02-16T13:23:20;101460.06;;;5.99;70.62
26657;BME280;14279;50.010;8.260;2023-02-16T13:26:09;101463.63;;;5.89;71.11
26657;BME280;14279;50.010;8.260;2023-02-16T13:32:10;101459.13;;;6.11;70.96
26657;BME280;14279;50.010;8.260;2023-02-16T13:34:45;101452.28;;;6.06;70.21
26657;BME280;14279;50.010;8.260;2023-02-16T13:45:29;101438.31;;;6.24;69.92
26657;BME280;14279;50.010;8.260;2023-02-16T13:47:57;101443.56;;;6.16;69.84
26657;BME280;14279;50.010;8.260;2023-02-16T13:50:24;101441.84;;;6.15;70.43
26657;BME280;14279;50.010;8.260;2023-02-16T13:52:51;101440.16;;;6.12;70.77
26657;BME280;14279;50.010;8.260;2023-02-16T13:55:30;101424.47;;;6.28;69.58
26657;BME280;14279;50.010;8.260;2023-02-16T14:00:44;101427.06;;;6.26;69.60
26657;BME280;14279;50.010;8.260;2023-02-16T14:05:45;101415.84;;;6.27;71.04
26657;BME280;14279;50.010;8.260;2023-02-16T14:08:25;101414.00;;;6.40;70.42
26657;BME280;14279;50.010;8.260;2023-02-16T14:10:58;101412.94;;;6.54;70.95
26657;BME280;14279;50.010;8.260;2023-02-16T14:13:42;101423.47;;;6.41;70.98
26657;BME280;14279;50.010;8.260;2023-02-16T14:16:22;101411.03;;;6.70;70.17
26657;BME280;14279;50.010;8.260;2023-02-16T14:18:59;101416.09;;;6.79;69.06
26657;BME280;14279;50.010;8.260;2023-02-16T14:21:33;101416.34;;;6.60;70.41
26657;BME280;14279;50.010;8.260;2023-02-16T14:24:01;101418.22;;;6.47;70.31
26657;BME280;14279;50.010;8.260;2023-02-16T14:26:28;101410.53;;;6.40;70.93
26657;BME280;14279;50.010;8.260;2023-02-16T14:29:08;101401.03;;;6.42;70.81
26657;BME280;14279;50.010;8.260;2023-02-16T14:31:42;101396.69;;;6.44;70.83
26657;BME280;14279;50.010;8.260;2023-02-16T14:34:23;101391.38;;;6.55;70.77
26657;BME280;14279;50.010;8.260;2023-02-16T14:39:36;101404.06;;;6.75;71.29
26657;BME280;14279;50.010;8.260;2023-02-16T14:42:06;101403.63;;;6.42;72.68